Bailey Switch, Kentucky
Current Conditions -  °F | °C
As of 3:53 PM on Tuesday 21 Oct 2014 (Local Time) from KLOZ Reporting Station
Overcast Overcast  
Wind Chill: 58°   Ceiling: 5000
Heat Index: 58°   Visibility: 10mi
Dew Point: 41°   Wind: 14mph
Humidity: 53%   Direction: 340°NNW
Pressure: 30.04"   Gusts: 20mph
Location:  36.865°N, 83.9507°W
Report Text: KLOZ 211953Z AUTO 34012G17KT 10SM FEW043 OVC050 14/05 A3004 RMK AO2 SLP171 T01440050
Loading
Personal Weather Stations






























Interactive Weather Map
Tropical Storm Tracking
New forecast layout! Learn more

10-Day Weather Forecast

Advertisements
Track Severe Weather on mobile